sensor_id;sensor_type;location;lat;lon;timestamp;temperature;humidity
3202;DHT22;34843;48.744;8.958;2023-02-14T00:00:53;-0.70;99.90
3202;DHT22;34843;48.744;8.958;2023-02-14T00:03:19;-0.70;99.90
3202;DHT22;34843;48.744;8.958;2023-02-14T00:05:44;-0.80;99.90
3202;DHT22;34843;48.744;8.958;2023-02-14T00:08:10;-0.60;99.90
3202;DHT22;34843;48.744;8.958;2023-02-14T00:10:36;-0.70;99.90
3202;DHT22;34843;48.744;8.958;2023-02-14T00:13:02;-0.70;99.90
3202;DHT22;34843;48.744;8.958;2023-02-14T00:15:27;-0.70;99.90
3202;DHT22;34843;48.744;8.958;2023-02-14T00:17:55;-0.70;99.90
3202;DHT22;34843;48.744;8.958;2023-02-14T00:20:21;-0.70;99.90
3202;DHT22;34843;48.744;8.958;2023-02-14T00:22:47;-0.70;99.90
3202;DHT22;34843;48.744;8.958;2023-02-14T00:25:13;-0.70;99.90
3202;DHT22;34843;48.744;8.958;2023-02-14T00:27:38;-0.70;99.90
3202;DHT22;34843;48.744;8.958;2023-02-14T00:30:06;-0.70;99.90
3202;DHT22;34843;48.744;8.958;2023-02-14T00:32:32;-0.70;99.90
3202;DHT22;34843;48.744;8.958;2023-02-14T00:34:58;-0.70;99.90
3202;DHT22;34843;48.744;8.958;2023-02-14T00:37:23;-0.70;99.90
3202;DHT22;34843;48.744;8.958;2023-02-14T00:39:49;-0.80;99.90
3202;DHT22;34843;48.744;8.958;2023-02-14T00:42:15;-0.80;99.90
3202;DHT22;34843;48.744;8.958;2023-02-14T00:44:41;-0.80;99.90
3202;DHT22;34843;48.744;8.958;2023-02-14T00:47:07;-0.80;99.90
3202;DHT22;34843;48.744;8.958;2023-02-14T00:49:32;-0.80;99.90
3202;DHT22;34843;48.744;8.958;2023-02-14T00:51:58;-0.80;99.90
3202;DHT22;34843;48.744;8.958;2023-02-14T00:54:24;-0.80;99.90
3202;DHT22;34843;48.744;8.958;2023-02-14T00:56:49;-0.80;99.90
3202;DHT22;34843;48.744;8.958;2023-02-14T00:59:15;-0.90;99.90
3202;DHT22;34843;48.744;8.958;2023-02-14T01:01:41;-0.90;99.90
3202;DHT22;34843;48.744;8.958;2023-02-14T01:04:07;-1.00;99.90
3202;DHT22;34843;48.744;8.958;2023-02-14T01:06:33;-0.90;99.90
3202;DHT22;34843;48.744;8.958;2023-02-14T01:08:58;-0.90;99.90
3202;DHT22;34843;48.744;8.958;2023-02-14T01:11:24;-1.00;99.90
3202;DHT22;34843;48.744;8.958;2023-02-14T01:13:52;-1.00;99.90
3202;DHT22;34843;48.744;8.958;2023-02-14T01:16:20;-1.00;99.90
3202;DHT22;34843;48.744;8.958;2023-02-14T01:18:46;-1.00;99.90
3202;DHT22;34843;48.744;8.958;2023-02-14T01:21:21;-1.00;99.90
3202;DHT22;34843;48.744;8.958;2023-02-14T01:23:49;-1.00;99.90
3202;DHT22;34843;48.744;8.958;2023-02-14T01:26:15;-1.00;99.90
3202;DHT22;34843;48.744;8.958;2023-02-14T01:28:41;-1.00;99.90
3202;DHT22;34843;48.744;8.958;2023-02-14T01:31:07;-1.00;99.90
3202;DHT22;34843;48.744;8.958;2023-02-14T01:33:33;-1.00;99.90
3202;DHT22;34843;48.744;8.958;2023-02-14T01:35:59;-1.10;99.90
3202;DHT22;34843;48.744;8.958;2023-02-14T01:38:25;-1.10;99.90
3202;DHT22;34843;48.744;8.958;2023-02-14T01:40:50;-1.20;99.90
3202;DHT22;34843;48.744;8.958;2023-02-14T01:43:16;-1.10;99.90
3202;DHT22;34843;48.744;8.958;2023-02-14T01:45:41;-1.20;99.90
3202;DHT22;34843;48.744;8.958;2023-02-14T01:48:07;-1.20;99.90
3202;DHT22;34843;48.744;8.958;2023-02-14T01:50:36;-1.20;99.90
3202;DHT22;34843;48.744;8.958;2023-02-14T01:53:11;-1.20;99.90
3202;DHT22;34843;48.744;8.958;2023-02-14T01:55:41;-1.10;99.90
3202;DHT22;34843;48.744;8.958;2023-02-14T01:58:12;-1.10;99.90
3202;DHT22;34843;48.744;8.958;2023-02-14T02:00:39;-1.20;99.90
3202;DHT22;34843;48.744;8.958;2023-02-14T02:06:02;-1.30;99.90
3202;DHT22;34843;48.744;8.958;2023-02-14T02:08:29;-1.40;99.90
3202;DHT22;34843;48.744;8.958;2023-02-14T02:10:55;-1.50;99.90
3202;DHT22;34843;48.744;8.958;2023-02-14T02:13:21;-1.60;99.90
3202;DHT22;34843;48.744;8.958;2023-02-14T02:16:02;-1.60;99.90
3202;DHT22;34843;48.744;8.958;2023-02-14T02:18:52;-1.70;99.90
3202;DHT22;34843;48.744;8.958;2023-02-14T02:21:39;-1.70;99.90
3202;DHT22;34843;48.744;8.958;2023-02-14T02:35:37;-1.60;99.90
3202;DHT22;34843;48.744;8.958;2023-02-14T02:41:22;-1.70;99.90
3202;DHT22;34843;48.744;8.958;2023-02-14T02:44:20;-1.60;99.90
3202;DHT22;34843;48.744;8.958;2023-02-14T02:47:04;-1.60;99.90
3202;DHT22;34843;48.744;8.958;2023-02-14T02:49:48;-1.60;99.90
3202;DHT22;34843;48.744;8.958;2023-02-14T02:52:49;-1.70;99.90
3202;DHT22;34843;48.744;8.958;2023-02-14T02:58:58;-1.70;99.90
3202;DHT22;34843;48.744;8.958;2023-02-14T03:01:33;-1.80;99.90
3202;DHT22;34843;48.744;8.958;2023-02-14T03:04:03;-1.80;99.90
3202;DHT22;34843;48.744;8.958;2023-02-14T03:06:48;-1.80;99.90
3202;DHT22;34843;48.744;8.958;2023-02-14T03:11:52;-1.90;99.90
3202;DHT22;34843;48.744;8.958;2023-02-14T03:14:24;-1.90;99.90
3202;DHT22;34843;48.744;8.958;2023-02-14T03:17:11;-1.90;99.90
3202;DHT22;34843;48.744;8.958;2023-02-14T03:23:25;-2.00;99.90
3202;DHT22;34843;48.744;8.958;2023-02-14T03:32:00;-2.00;99.90
3202;DHT22;34843;48.744;8.958;2023-02-14T03:37:39;-2.00;99.90
3202;DHT22;34843;48.744;8.958;2023-02-14T03:40:28;-2.00;99.90
3202;DHT22;34843;48.744;8.958;2023-02-14T03:42:59;-2.70;99.90
3202;DHT22;34843;48.744;8.958;2023-02-14T03:45:31;-2.00;99.90
3202;DHT22;34843;48.744;8.958;2023-02-14T03:48:02;-1.90;99.90
3202;DHT22;34843;48.744;8.958;2023-02-14T03:50:29;-2.00;99.90
3202;DHT22;34843;48.744;8.958;2023-02-14T03:52:56;-2.00;99.90
3202;DHT22;34843;48.744;8.958;2023-02-14T03:55:27;-2.00;99.90
3202;DHT22;34843;48.744;8.958;2023-02-14T03:58:14;-2.00;99.90
3202;DHT22;34843;48.744;8.958;2023-02-14T04:00:42;-2.00;99.90
3202;DHT22;34843;48.744;8.958;2023-02-14T04:03:10;-2.00;99.90
3202;DHT22;34843;48.744;8.958;2023-02-14T04:05:38;-2.00;99.90
3202;DHT22;34843;48.744;8.958;2023-02-14T04:08:08;-2.00;99.90
3202;DHT22;34843;48.744;8.958;2023-02-14T04:10:34;-2.00;99.90
3202;DHT22;34843;48.744;8.958;2023-02-14T04:13:00;-2.10;99.90
3202;DHT22;34843;48.744;8.958;2023-02-14T04:15:25;-2.10;99.90
3202;DHT22;34843;48.744;8.958;2023-02-14T04:17:51;-2.10;99.90
3202;DHT22;34843;48.744;8.958;2023-02-14T04:20:45;-2.10;99.90
3202;DHT22;34843;48.744;8.958;2023-02-14T04:23:11;-1.80;99.90
3202;DHT22;34843;48.744;8.958;2023-02-14T04:25:37;-2.20;99.90
3202;DHT22;34843;48.744;8.958;2023-02-14T04:28:04;-2.20;99.90
3202;DHT22;34843;48.744;8.958;2023-02-14T04:30:30;-2.30;99.90
3202;DHT22;34843;48.744;8.958;2023-02-14T04:32:55;-2.30;99.90
3202;DHT22;34843;48.744;8.958;2023-02-14T04:35:21;-2.30;99.90
3202;DHT22;34843;48.744;8.958;2023-02-14T04:37:46;-2.30;99.90
3202;DHT22;34843;48.744;8.958;2023-02-14T04:40:12;-2.30;99.90
3202;DHT22;34843;48.744;8.958;2023-02-14T04:42:41;-2.40;99.90
3202;DHT22;34843;48.744;8.958;2023-02-14T04:45:07;-2.40;99.90
3202;DHT22;34843;48.744;8.958;2023-02-14T04:47:32;-2.40;99.90
3202;DHT22;34843;48.744;8.958;2023-02-14T04:49:58;-2.40;99.90
3202;DHT22;34843;48.744;8.958;2023-02-14T04:52:23;-2.40;99.90
3202;DHT22;34843;48.744;8.958;2023-02-14T04:54:49;-2.50;99.90
3202;DHT22;34843;48.744;8.958;2023-02-14T04:57:14;-2.50;99.90
3202;DHT22;34843;48.744;8.958;2023-02-14T04:59:40;-2.60;99.90
3202;DHT22;34843;48.744;8.958;2023-02-14T05:02:05;-2.60;99.90
3202;DHT22;34843;48.744;8.958;2023-02-14T05:04:31;-2.70;99.90
3202;DHT22;34843;48.744;8.958;2023-02-14T05:06:56;-2.70;99.90
3202;DHT22;34843;48.744;8.958;2023-02-14T05:09:22;-2.70;99.90
3202;DHT22;34843;48.744;8.958;2023-02-14T05:11:47;-2.70;99.90
3202;DHT22;34843;48.744;8.958;2023-02-14T05:14:13;-2.70;99.90
3202;DHT22;34843;48.744;8.958;2023-02-14T05:16:39;-2.80;99.90
3202;DHT22;34843;48.744;8.958;2023-02-14T05:19:04;-2.80;99.90
3202;DHT22;34843;48.744;8.958;2023-02-14T05:21:30;-2.90;99.90
3202;DHT22;34843;48.744;8.958;2023-02-14T05:23:58;-3.00;99.90
3202;DHT22;34843;48.744;8.958;2023-02-14T05:26:24;-3.00;99.90
3202;DHT22;34843;48.744;8.958;2023-02-14T05:28:49;-3.00;99.90
3202;DHT22;34843;48.744;8.958;2023-02-14T05:31:15;-3.10;99.90
3202;DHT22;34843;48.744;8.958;2023-02-14T05:33:40;-3.10;99.90
3202;DHT22;34843;48.744;8.958;2023-02-14T05:36:06;-3.10;99.90
3202;DHT22;34843;48.744;8.958;2023-02-14T05:38:32;-3.10;99.90
3202;DHT22;34843;48.744;8.958;2023-02-14T05:40:59;-3.10;99.90
3202;DHT22;34843;48.744;8.958;2023-02-14T05:43:25;-3.20;99.90
3202;DHT22;34843;48.744;8.958;2023-02-14T05:45:50;-3.10;99.90
3202;DHT22;34843;48.744;8.958;2023-02-14T05:48:16;-3.10;99.90
3202;DHT22;34843;48.744;8.958;2023-02-14T05:50:42;-3.10;99.90
3202;DHT22;34843;48.744;8.958;2023-02-14T05:53:09;-3.10;99.90
3202;DHT22;34843;48.744;8.958;2023-02-14T05:55:35;-3.10;99.90
3202;DHT22;34843;48.744;8.958;2023-02-14T05:58:01;-3.10;99.90
3202;DHT22;34843;48.744;8.958;2023-02-14T06:00:26;-2.40;99.90
3202;DHT22;34843;48.744;8.958;2023-02-14T06:02:52;-3.20;99.90
3202;DHT22;34843;48.744;8.958;2023-02-14T06:05:18;-3.10;99.90
3202;DHT22;34843;48.744;8.958;2023-02-14T06:07:47;-3.10;99.90
3202;DHT22;34843;48.744;8.958;2023-02-14T06:10:24;-3.10;99.90
3202;DHT22;34843;48.744;8.958;2023-02-14T06:12:51;-3.10;99.90
3202;DHT22;34843;48.744;8.958;2023-02-14T06:15:17;-3.10;99.90
3202;DHT22;34843;48.744;8.958;2023-02-14T06:17:43;-3.10;99.90
3202;DHT22;34843;48.744;8.958;2023-02-14T06:20:10;-3.10;99.90
3202;DHT22;34843;48.744;8.958;2023-02-14T06:22:36;-3.00;99.90
3202;DHT22;34843;48.744;8.958;2023-02-14T06:25:03;-3.00;99.90
3202;DHT22;34843;48.744;8.958;2023-02-14T06:27:29;-3.00;99.90
3202;DHT22;34843;48.744;8.958;2023-02-14T06:29:55;-3.00;99.90
3202;DHT22;34843;48.744;8.958;2023-02-14T06:32:21;-3.00;99.90
3202;DHT22;34843;48.744;8.958;2023-02-14T06:34:47;-3.00;99.90
3202;DHT22;34843;48.744;8.958;2023-02-14T06:37:12;-3.00;99.90
3202;DHT22;34843;48.744;8.958;2023-02-14T06:39:38;-3.00;99.90
3202;DHT22;34843;48.744;8.958;2023-02-14T06:42:03;-3.00;99.90
3202;DHT22;34843;48.744;8.958;2023-02-14T06:44:29;-3.00;99.90
3202;DHT22;34843;48.744;8.958;2023-02-14T06:46:54;-3.10;99.90
3202;DHT22;34843;48.744;8.958;2023-02-14T06:49:20;-3.10;99.90
3202;DHT22;34843;48.744;8.958;2023-02-14T06:51:45;-3.20;99.90
3202;DHT22;34843;48.744;8.958;2023-02-14T06:54:11;-3.20;99.90
3202;DHT22;34843;48.744;8.958;2023-02-14T06:56:36;-3.20;99.90
3202;DHT22;34843;48.744;8.958;2023-02-14T06:59:02;-3.10;99.90
3202;DHT22;34843;48.744;8.958;2023-02-14T07:01:27;-3.10;99.90
3202;DHT22;34843;48.744;8.958;2023-02-14T07:03:53;-3.00;99.90
3202;DHT22;34843;48.744;8.958;2023-02-14T07:06:18;-2.90;99.90
3202;DHT22;34843;48.744;8.958;2023-02-14T07:08:44;-2.90;99.90
3202;DHT22;34843;48.744;8.958;2023-02-14T07:11:10;-2.50;99.90
3202;DHT22;34843;48.744;8.958;2023-02-14T07:13:35;-1.60;99.90
3202;DHT22;34843;48.744;8.958;2023-02-14T07:16:01;-0.60;99.90
3202;DHT22;34843;48.744;8.958;2023-02-14T07:18:26;0.40;99.90
3202;DHT22;34843;48.744;8.958;2023-02-14T07:20:52;1.30;99.90
3202;DHT22;34843;48.744;8.958;2023-02-14T07:23:17;1.40;99.90
3202;DHT22;34843;48.744;8.958;2023-02-14T07:25:43;0.80;99.90
3202;DHT22;34843;48.744;8.958;2023-02-14T07:28:08;0.30;99.90
3202;DHT22;34843;48.744;8.958;2023-02-14T07:30:34;0.70;99.90
3202;DHT22;34843;48.744;8.958;2023-02-14T07:33:00;1.70;99.90
3202;DHT22;34843;48.744;8.958;2023-02-14T07:35:25;2.90;99.90
3202;DHT22;34843;48.744;8.958;2023-02-14T07:37:51;3.50;99.90
3202;DHT22;34843;48.744;8.958;2023-02-14T07:40:17;4.00;99.90
3202;DHT22;34843;48.744;8.958;2023-02-14T07:42:50;4.40;99.90
3202;DHT22;34843;48.744;8.958;2023-02-14T07:45:16;4.50;99.90
3202;DHT22;34843;48.744;8.958;2023-02-14T07:47:41;4.40;99.90
3202;DHT22;34843;48.744;8.958;2023-02-14T07:50:07;4.40;99.90
3202;DHT22;34843;48.744;8.958;2023-02-14T07:52:33;4.50;99.90
3202;DHT22;34843;48.744;8.958;2023-02-14T07:54:58;4.60;99.90
3202;DHT22;34843;48.744;8.958;2023-02-14T07:57:24;4.70;99.90
3202;DHT22;34843;48.744;8.958;2023-02-14T07:59:49;5.50;99.90
3202;DHT22;34843;48.744;8.958;2023-02-14T08:02:15;6.30;99.90
3202;DHT22;34843;48.744;8.958;2023-02-14T08:04:40;7.00;99.90
3202;DHT22;34843;48.744;8.958;2023-02-14T08:07:06;7.60;99.90
3202;DHT22;34843;48.744;8.958;2023-02-14T08:09:31;8.00;99.90
3202;DHT22;34843;48.744;8.958;2023-02-14T08:11:57;8.10;99.90
3202;DHT22;34843;48.744;8.958;2023-02-14T08:14:43;7.90;99.90
3202;DHT22;34843;48.744;8.958;2023-02-14T08:17:09;7.70;99.90
3202;DHT22;34843;48.744;8.958;2023-02-14T08:19:35;7.50;99.90
3202;DHT22;34843;48.744;8.958;2023-02-14T08:22:02;7.50;99.90
3202;DHT22;34843;48.744;8.958;2023-02-14T08:24:28;7.80;99.90
3202;DHT22;34843;48.744;8.958;2023-02-14T08:26:53;8.00;99.90
3202;DHT22;34843;48.744;8.958;2023-02-14T08:29:19;7.30;99.90
3202;DHT22;34843;48.744;8.958;2023-02-14T08:31:44;6.20;99.90
3202;DHT22;34843;48.744;8.958;2023-02-14T08:34:12;5.40;99.90
3202;DHT22;34843;48.744;8.958;2023-02-14T08:36:37;5.40;99.90
3202;DHT22;34843;48.744;8.958;2023-02-14T08:39:03;5.50;99.90
3202;DHT22;34843;48.744;8.958;2023-02-14T08:41:29;5.50;99.90
3202;DHT22;34843;48.744;8.958;2023-02-14T08:43:55;5.10;99.90
3202;DHT22;34843;48.744;8.958;2023-02-14T08:46:21;4.70;99.90
3202;DHT22;34843;48.744;8.958;2023-02-14T08:48:46;4.50;99.90
3202;DHT22;34843;48.744;8.958;2023-02-14T08:51:13;3.80;99.90
3202;DHT22;34843;48.744;8.958;2023-02-14T08:53:40;3.40;99.90
3202;DHT22;34843;48.744;8.958;2023-02-14T08:56:12;3.10;99.90
3202;DHT22;34843;48.744;8.958;2023-02-14T08:58:38;3.00;99.90
3202;DHT22;34843;48.744;8.958;2023-02-14T09:01:12;2.90;99.90
3202;DHT22;34843;48.744;8.958;2023-02-14T09:03:38;2.80;99.90
3202;DHT22;34843;48.744;8.958;2023-02-14T09:06:09;2.70;99.90
3202;DHT22;34843;48.744;8.958;2023-02-14T09:08:36;2.80;99.90
3202;DHT22;34843;48.744;8.958;2023-02-14T09:11:16;2.80;99.90
3202;DHT22;34843;48.744;8.958;2023-02-14T09:13:46;2.90;99.90
3202;DHT22;34843;48.744;8.958;2023-02-14T09:16:14;3.00;99.90
3202;DHT22;34843;48.744;8.958;2023-02-14T09:18:42;3.00;99.90
3202;DHT22;34843;48.744;8.958;2023-02-14T09:21:16;3.10;99.90
3202;DHT22;34843;48.744;8.958;2023-02-14T09:23:42;3.20;99.90
3202;DHT22;34843;48.744;8.958;2023-02-14T09:26:10;3.20;99.90
3202;DHT22;34843;48.744;8.958;2023-02-14T09:28:36;3.40;99.90
3202;DHT22;34843;48.744;8.958;2023-02-14T09:31:17;3.40;99.90
3202;DHT22;34843;48.744;8.958;2023-02-14T09:33:43;3.50;99.90
3202;DHT22;34843;48.744;8.958;2023-02-14T09:36:27;3.60;99.90
3202;DHT22;34843;48.744;8.958;2023-02-14T09:38:53;3.70;99.90
3202;DHT22;34843;48.744;8.958;2023-02-14T09:47:04;4.20;99.90
3202;DHT22;34843;48.744;8.958;2023-02-14T09:49:33;4.30;99.90
3202;DHT22;34843;48.744;8.958;2023-02-14T09:52:02;4.30;99.90
3202;DHT22;34843;48.744;8.958;2023-02-14T09:54:29;4.40;99.90
3202;DHT22;34843;48.744;8.958;2023-02-14T09:57:03;4.60;99.90
3202;DHT22;34843;48.744;8.958;2023-02-14T09:59:49;4.60;99.90
3202;DHT22;34843;48.744;8.958;2023-02-14T10:10:22;5.20;99.90
3202;DHT22;34843;48.744;8.958;2023-02-14T10:15:23;5.40;99.90
3202;DHT22;34843;48.744;8.958;2023-02-14T10:17:51;5.50;99.90
3202;DHT22;34843;48.744;8.958;2023-02-14T10:20:30;5.60;99.90
3202;DHT22;34843;48.744;8.958;2023-02-14T10:26:11;5.90;99.90
3202;DHT22;34843;48.744;8.958;2023-02-14T10:28:45;6.00;99.90
3202;DHT22;34843;48.744;8.958;2023-02-14T10:34:11;6.20;99.90
3202;DHT22;34843;48.744;8.958;2023-02-14T10:37:10;6.20;99.90
3202;DHT22;34843;48.744;8.958;2023-02-14T10:42:44;6.40;99.90
3202;DHT22;34843;48.744;8.958;2023-02-14T10:45:32;6.60;99.90
3202;DHT22;34843;48.744;8.958;2023-02-14T10:48:37;6.70;99.90
3202;DHT22;34843;48.744;8.958;2023-02-14T10:51:33;6.90;99.90
3202;DHT22;34843;48.744;8.958;2023-02-14T10:54:24;7.00;99.90
3202;DHT22;34843;48.744;8.958;2023-02-14T11:02:18;7.20;99.90
3202;DHT22;34843;48.744;8.958;2023-02-14T11:04:45;7.30;99.90
3202;DHT22;34843;48.744;8.958;2023-02-14T11:07:13;7.30;99.90
3202;DHT22;34843;48.744;8.958;2023-02-14T11:09:39;7.40;99.90
3202;DHT22;34843;48.744;8.958;2023-02-14T11:12:05;7.50;99.90
3202;DHT22;34843;48.744;8.958;2023-02-14T11:14:35;7.60;99.90
3202;DHT22;34843;48.744;8.958;2023-02-14T11:17:33;7.70;99.90
3202;DHT22;34843;48.744;8.958;2023-02-14T11:22:42;7.90;99.90
3202;DHT22;34843;48.744;8.958;2023-02-14T11:25:30;8.00;99.90
3202;DHT22;34843;48.744;8.958;2023-02-14T11:28:11;8.10;99.90
3202;DHT22;34843;48.744;8.958;2023-02-14T11:30:42;8.10;99.90
3202;DHT22;34843;48.744;8.958;2023-02-14T11:33:42;8.20;99.90
3202;DHT22;34843;48.744;8.958;2023-02-14T11:36:13;8.40;99.90
3202;DHT22;34843;48.744;8.958;2023-02-14T11:38:40;8.50;99.90
3202;DHT22;34843;48.744;8.958;2023-02-14T11:41:09;8.50;99.90
3202;DHT22;34843;48.744;8.958;2023-02-14T11:43:38;8.60;99.90
3202;DHT22;34843;48.744;8.958;2023-02-14T11:49:22;8.90;99.90
3202;DHT22;34843;48.744;8.958;2023-02-14T11:51:48;9.00;99.90
3202;DHT22;34843;48.744;8.958;2023-02-14T11:54:32;9.10;99.90
3202;DHT22;34843;48.744;8.958;2023-02-14T11:57:12;9.20;99.90
3202;DHT22;34843;48.744;8.958;2023-02-14T11:59:44;9.30;99.90
3202;DHT22;34843;48.744;8.958;2023-02-14T12:02:23;9.30;99.90
3202;DHT22;34843;48.744;8.958;2023-02-14T12:04:54;9.40;99.90
3202;DHT22;34843;48.744;8.958;2023-02-14T12:07:35;9.40;99.90
3202;DHT22;34843;48.744;8.958;2023-02-14T12:12:55;9.50;99.90
3202;DHT22;34843;48.744;8.958;2023-02-14T12:15:29;9.50;99.90
3202;DHT22;34843;48.744;8.958;2023-02-14T12:21:10;9.50;99.90
3202;DHT22;34843;48.744;8.958;2023-02-14T12:23:46;9.50;99.90
3202;DHT22;34843;48.744;8.958;2023-02-14T12:26:34;9.40;99.90
3202;DHT22;34843;48.744;8.958;2023-02-14T12:29:19;9.40;99.90
3202;DHT22;34843;48.744;8.958;2023-02-14T12:31:46;9.40;99.90
3202;DHT22;34843;48.744;8.958;2023-02-14T12:34:14;9.30;99.90
3202;DHT22;34843;48.744;8.958;2023-02-14T12:50:37;9.30;99.90
3202;DHT22;34843;48.744;8.958;2023-02-14T12:53:30;9.30;99.90
3202;DHT22;34843;48.744;8.958;2023-02-14T12:56:06;9.40;99.90
3202;DHT22;34843;48.744;8.958;2023-02-14T13:01:44;9.50;99.90
3202;DHT22;34843;48.744;8.958;2023-02-14T13:09:56;9.60;99.90
3202;DHT22;34843;48.744;8.958;2023-02-14T13:15:17;9.70;99.90
3202;DHT22;34843;48.744;8.958;2023-02-14T13:17:53;9.80;99.90
3202;DHT22;34843;48.744;8.958;2023-02-14T13:20:39;9.80;99.90
3202;DHT22;34843;48.744;8.958;2023-02-14T13:24:00;9.90;99.90
3202;DHT22;34843;48.744;8.958;2023-02-14T13:26:30;9.90;99.90
3202;DHT22;34843;48.744;8.958;2023-02-14T13:29:09;9.90;99.90
3202;DHT22;34843;48.744;8.958;2023-02-14T13:31:35;10.00;99.90
3202;DHT22;34843;48.744;8.958;2023-02-14T13:34:32;10.00;99.90
3202;DHT22;34843;48.744;8.958;2023-02-14T13:37:01;10.00;99.90
3202;DHT22;34843;48.744;8.958;2023-02-14T13:39:44;10.00;99.90
3202;DHT22;34843;48.744;8.958;2023-02-14T13:42:11;10.00;99.90
3202;DHT22;34843;48.744;8.958;2023-02-14T13:44:48;10.00;99.90
3202;DHT22;34843;48.744;8.958;2023-02-14T13:47:22;10.00;99.90
3202;DHT22;34843;48.744;8.958;2023-02-14T13:49:59;10.00;99.90
3202;DHT22;34843;48.744;8.958;2023-02-14T13:52:46;9.90;99.90
3202;DHT22;34843;48.744;8.958;2023-02-14T13:55:22;9.90;99.90
3202;DHT22;34843;48.744;8.958;2023-02-14T13:58:18;9.90;99.90
3202;DHT22;34843;48.744;8.958;2023-02-14T14:00:47;9.80;99.90
3202;DHT22;34843;48.744;8.958;2023-02-14T14:06:07;9.80;99.90
3202;DHT22;34843;48.744;8.958;2023-02-14T14:08:35;9.80;99.90
3202;DHT22;34843;48.744;8.958;2023-02-14T14:21:43;9.60;99.90
3202;DHT22;34843;48.744;8.958;2023-02-14T14:24:26;9.60;99.90
3202;DHT22;34843;48.744;8.958;2023-02-14T14:26:59;9.60;99.90
3202;DHT22;34843;48.744;8.958;2023-02-14T14:29:34;9.60;99.90
3202;DHT22;34843;48.744;8.958;2023-02-14T14:32:17;9.50;99.90
3202;DHT22;34843;48.744;8.958;2023-02-14T14:34:52;9.50;99.90
3202;DHT22;34843;48.744;8.958;2023-02-14T14:37:20;9.50;99.90
3202;DHT22;34843;48.744;8.958;2023-02-14T14:39:53;9.50;99.90
3202;DHT22;34843;48.744;8.958;2023-02-14T14:42:19;9.50;99.90
3202;DHT22;34843;48.744;8.958;2023-02-14T14:44:53;9.40;99.90
3202;DHT22;34843;48.744;8.958;2023-02-14T14:47:25;9.40;99.90
3202;DHT22;34843;48.744;8.958;2023-02-14T14:49:56;9.40;99.90
3202;DHT22;34843;48.744;8.958;2023-02-14T14:52:31;9.30;99.90
3202;DHT22;34843;48.744;8.958;2023-02-14T14:54:57;9.30;99.90
3202;DHT22;34843;48.744;8.958;2023-02-14T14:57:23;9.20;99.90
3202;DHT22;34843;48.744;8.958;2023-02-14T14:59:49;9.20;99.90
3202;DHT22;34843;48.744;8.958;2023-02-14T15:02:28;9.10;99.90
3202;DHT22;34843;48.744;8.958;2023-02-14T15:04:56;9.10;99.90
3202;DHT22;34843;48.744;8.958;2023-02-14T15:07:31;9.10;99.90
3202;DHT22;34843;48.744;8.958;2023-02-14T15:09:58;9.00;99.90
3202;DHT22;34843;48.744;8.958;2023-02-14T15:12:24;9.00;99.90
3202;DHT22;34843;48.744;8.958;2023-02-14T15:15:29;9.00;99.90
3202;DHT22;34843;48.744;8.958;2023-02-14T15:17:55;9.00;99.90
3202;DHT22;34843;48.744;8.958;2023-02-14T15:20:21;8.90;99.90
3202;DHT22;34843;48.744;8.958;2023-02-14T15:22:49;8.90;99.90
3202;DHT22;34843;48.744;8.958;2023-02-14T15:25:27;8.80;99.90
3202;DHT22;34843;48.744;8.958;2023-02-14T15:27:53;8.70;99.90
3202;DHT22;34843;48.744;8.958;2023-02-14T15:32:46;8.60;99.90
3202;DHT22;34843;48.744;8.958;2023-02-14T15:35:13;8.50;99.90
3202;DHT22;34843;48.744;8.958;2023-02-14T15:37:41;8.40;99.90
3202;DHT22;34843;48.744;8.958;2023-02-14T15:40:15;8.40;99.90
3202;DHT22;34843;48.744;8.958;2023-02-14T15:42:43;8.30;99.90
3202;DHT22;34843;48.744;8.958;2023-02-14T15:50:32;8.10;99.90
3202;DHT22;34843;48.744;8.958;2023-02-14T15:53:07;8.10;99.90
3202;DHT22;34843;48.744;8.958;2023-02-14T15:55:33;8.00;99.90
3202;DHT22;34843;48.744;8.958;2023-02-14T15:58:21;7.90;99.90
3202;DHT22;34843;48.744;8.958;2023-02-14T16:00:48;7.80;99.90
3202;DHT22;34843;48.744;8.958;2023-02-14T16:03:25;7.80;99.90
3202;DHT22;34843;48.744;8.958;2023-02-14T16:05:51;7.70;99.90
3202;DHT22;34843;48.744;8.958;2023-02-14T16:11:05;7.50;99.90
3202;DHT22;34843;48.744;8.958;2023-02-14T16:13:35;7.40;99.90
3202;DHT22;34843;48.744;8.958;2023-02-14T16:16:09;7.30;99.90
3202;DHT22;34843;48.744;8.958;2023-02-14T16:18:40;7.20;99.90
3202;DHT22;34843;48.744;8.958;2023-02-14T16:21:27;7.20;99.90
3202;DHT22;34843;48.744;8.958;2023-02-14T16:26:32;7.00;99.90
3202;DHT22;34843;48.744;8.958;2023-02-14T16:28:57;6.90;99.90
3202;DHT22;34843;48.744;8.958;2023-02-14T16:31:23;6.80;99.90
3202;DHT22;34843;48.744;8.958;2023-02-14T16:33:50;6.70;99.90
3202;DHT22;34843;48.744;8.958;2023-02-14T16:36:27;6.70;99.90
3202;DHT22;34843;48.744;8.958;2023-02-14T16:38:53;6.60;99.90
3202;DHT22;34843;48.744;8.958;2023-02-14T16:41:22;6.50;99.90
3202;DHT22;34843;48.744;8.958;2023-02-14T16:43:48;6.30;99.90
3202;DHT22;34843;48.744;8.958;2023-02-14T16:46:16;6.20;99.90
3202;DHT22;34843;48.744;8.958;2023-02-14T16:48:42;6.00;99.90
3202;DHT22;34843;48.744;8.958;2023-02-14T16:51:11;5.80;99.90
3202;DHT22;34843;48.744;8.958;2023-02-14T16:53:38;5.60;99.90
3202;DHT22;34843;48.744;8.958;2023-02-14T16:56:05;5.40;99.90
3202;DHT22;34843;48.744;8.958;2023-02-14T16:58:33;5.20;99.90
3202;DHT22;34843;48.744;8.958;2023-02-14T17:01:00;5.00;99.90
3202;DHT22;34843;48.744;8.958;2023-02-14T17:03:25;4.80;99.90
3202;DHT22;34843;48.744;8.958;2023-02-14T17:05:51;4.70;99.90
3202;DHT22;34843;48.744;8.958;2023-02-14T17:08:17;4.50;99.90
3202;DHT22;34843;48.744;8.958;2023-02-14T17:10:44;4.40;99.90
3202;DHT22;34843;48.744;8.958;2023-02-14T17:13:11;4.30;99.90
3202;DHT22;34843;48.744;8.958;2023-02-14T17:15:38;4.30;99.90
3202;DHT22;34843;48.744;8.958;2023-02-14T17:18:09;4.10;99.90
3202;DHT22;34843;48.744;8.958;2023-02-14T17:20:36;4.00;99.90
3202;DHT22;34843;48.744;8.958;2023-02-14T17:23:02;3.80;99.90
3202;DHT22;34843;48.744;8.958;2023-02-14T17:25:28;3.60;99.90
3202;DHT22;34843;48.744;8.958;2023-02-14T17:27:54;3.40;99.90
3202;DHT22;34843;48.744;8.958;2023-02-14T17:30:21;3.30;99.90
3202;DHT22;34843;48.744;8.958;2023-02-14T17:32:46;3.30;99.90
3202;DHT22;34843;48.744;8.958;2023-02-14T17:35:17;3.30;99.90
3202;DHT22;34843;48.744;8.958;2023-02-14T17:37:43;3.20;99.90
3202;DHT22;34843;48.744;8.958;2023-02-14T17:40:09;3.10;99.90
3202;DHT22;34843;48.744;8.958;2023-02-14T17:42:35;3.10;99.90
3202;DHT22;34843;48.744;8.958;2023-02-14T17:45:01;3.00;99.90
3202;DHT22;34843;48.744;8.958;2023-02-14T17:47:28;2.90;99.90
3202;DHT22;34843;48.744;8.958;2023-02-14T17:49:53;2.80;99.90
3202;DHT22;34843;48.744;8.958;2023-02-14T17:52:19;2.80;99.90
3202;DHT22;34843;48.744;8.958;2023-02-14T17:54:46;2.80;99.90
3202;DHT22;34843;48.744;8.958;2023-02-14T17:57:12;2.70;99.90
3202;DHT22;34843;48.744;8.958;2023-02-14T17:59:37;2.70;99.90
3202;DHT22;34843;48.744;8.958;2023-02-14T18:02:03;2.70;99.90
3202;DHT22;34843;48.744;8.958;2023-02-14T18:04:29;2.60;99.90
3202;DHT22;34843;48.744;8.958;2023-02-14T18:06:54;2.60;99.90
3202;DHT22;34843;48.744;8.958;2023-02-14T18:09:20;2.50;99.90
3202;DHT22;34843;48.744;8.958;2023-02-14T18:11:46;2.50;99.90
3202;DHT22;34843;48.744;8.958;2023-02-14T18:14:12;2.40;99.90
3202;DHT22;34843;48.744;8.958;2023-02-14T18:16:38;2.40;99.90
3202;DHT22;34843;48.744;8.958;2023-02-14T18:19:05;2.30;99.90
3202;DHT22;34843;48.744;8.958;2023-02-14T18:21:33;2.30;99.90
3202;DHT22;34843;48.744;8.958;2023-02-14T18:24:01;2.20;99.90